Terminal Aerodrome Forecast
Issued by NWS

Home | Current Version | Previous Version | Text Only | Print | Product List | Glossary On
Versions: 1 2 3 4 5 6 7 8 9 10 11 12 13 14 15 16 17 18 19 20 21 22 23 24 25 26 27 28 29 30 31 32 33 34 35
000
FTUS43 KGLD 022328
TAFMCK
TAF
KMCK 022328Z 0300/0324 15013G20KT P6SM SCT250
     FM030400 15014G21KT P6SM VCTS SCT045CB BKN150
     FM030800 14010KT P6SM SCT150
     FM031100 11007KT 5SM BR BKN015
     FM031600 07011KT P6SM SKC
     FM032000 08012KT P6SM VCTS SCT040CB=

USA.gov is the U.S. government's official web portal to all federal, state and local government web resources and services.